PAEN/ENA METAR and TAF weather

Enter ICAO airport designator
Station Type Date Time Source
PAEN METAR 2019/10/20 18:53 UTC NOAA

PAEN 201853Z 03010KT 10SM BKN075 04/02 A2965 RMK AO2 SLP044 T00390017


Station Type Date Time Source
PAEN Decoded METAR 2019/10/20 18:53 UTC NOAA

KENAI MUNICIPAL AIRPORT, AK, United States (PAEN) 60-35N 151-14W 25M
Oct 20, 2019 - 02:53 PM EDT / 2019.10.20 1853 UTC
Wind: from the NNE (030 degrees) at 12 MPH (10 KT):0
Visibility: 10 mile(s):0
Sky conditions: mostly cloudy
Temperature: 39.0 F (3.9 C)
Dew Point: 35.1 F (1.7 C)
Relative Humidity: 85%
Pressure (altimeter): 29.65 in. Hg (1004 hPa)
ob: PAEN 201853Z 03010KT 10SM BKN075 04/02 A2965 RMK AO2 SLP044 T00390017
cycle: 19

Station Type Date Time Source
PAEN TAF 2019/10/20 18:22 UTC NOAA

TAF PAEN 201720Z 2018/2118 04008KT P6SM BKN070
FM210300 03008KT P6SM -SHRA SCT020 OVC030

Example: see airport list